createdAt,value
2018-03-22T00:00:28.774Z,15.53
2018-03-22T00:02:57.853Z,13.20
2018-03-22T00:05:26.918Z,14.13
2018-03-22T00:07:55.992Z,14.17
2018-03-22T00:10:25.826Z,11.60
2018-03-22T00:12:54.912Z,11.90
2018-03-22T00:15:23.980Z,12.00
2018-03-22T00:17:53.832Z,12.53
2018-03-22T00:20:22.900Z,13.03
2018-03-22T00:22:52.745Z,12.00
2018-03-22T00:25:21.813Z,12.90
2018-03-22T00:27:51.652Z,12.77
2018-03-22T00:30:20.724Z,10.77
2018-03-22T00:32:49.795Z,12.50
2018-03-22T00:35:19.630Z,11.57
2018-03-22T00:37:48.701Z,12.73
2018-03-22T00:40:18.526Z,13.20
2018-03-22T00:42:48.363Z,13.47
2018-03-22T00:45:17.402Z,14.17
2018-03-22T00:47:46.472Z,14.30
2018-03-22T00:50:15.514Z,14.83
2018-03-22T00:52:45.352Z,14.90
2018-03-22T00:55:14.385Z,14.40
2018-03-22T00:57:43.461Z,14.13
2018-03-22T01:00:12.517Z,14.00
2018-03-22T01:02:41.593Z,13.70
2018-03-22T01:05:11.406Z,14.33
2018-03-22T01:07:41.221Z,13.93
2018-03-22T01:10:11.069Z,13.53
2018-03-22T01:12:40.127Z,13.57
2018-03-22T01:15:09.938Z,14.33
2018-03-22T01:17:39.781Z,16.20
2018-03-22T01:20:08.918Z,15.30
2018-03-22T01:22:37.975Z,15.83
2018-03-22T01:25:07.049Z,15.60
2018-03-22T01:27:36.857Z,15.17
2018-03-22T01:30:24.480Z,14.80
2018-03-22T01:32:54.303Z,15.40
2018-03-22T01:35:24.106Z,14.73
2018-03-22T01:37:53.951Z,14.67
2018-03-22T01:40:22.999Z,15.40
2018-03-22T01:42:52.073Z,14.30
2018-03-22T01:45:21.118Z,13.50
2018-03-22T01:47:50.168Z,15.20
2018-03-22T01:50:19.221Z,17.00
2018-03-22T01:53:06.216Z,14.53
2018-03-22T01:55:36.021Z,12.53
2018-03-22T01:58:05.830Z,15.00
2018-03-22T02:00:35.662Z,15.00
2018-03-22T02:03:04.711Z,12.17
2018-03-22T02:05:33.794Z,14.13
2018-03-22T02:08:02.848Z,12.83
2018-03-22T02:10:31.894Z,13.70
2018-03-22T02:13:00.982Z,13.87
2018-03-22T02:15:30.033Z,13.60
2018-03-22T02:17:59.087Z,14.57
2018-03-22T02:20:28.185Z,14.40
2018-03-22T02:22:58.004Z,13.83
2018-03-22T02:25:27.825Z,14.57
2018-03-22T02:27:57.629Z,14.47
2018-03-22T02:30:27.469Z,13.50
2018-03-22T02:32:56.511Z,14.37
2018-03-22T02:35:25.550Z,15.50
2018-03-22T02:37:54.632Z,14.03
2018-03-22T02:40:24.433Z,14.20
2018-03-22T02:42:54.243Z,13.47
2018-03-22T02:45:24.099Z,13.50
2018-03-22T02:47:53.138Z,13.60
2018-03-22T02:50:22.189Z,13.67
2018-03-22T02:52:51.275Z,13.47
2018-03-22T02:55:20.314Z,13.13
2018-03-22T02:57:49.361Z,11.90
2018-03-22T03:00:18.456Z,14.07
2018-03-22T03:02:47.514Z,13.30
2018-03-22T03:05:17.326Z,14.17
2018-03-22T03:07:47.173Z,13.93
2018-03-22T03:10:16.222Z,13.93
2018-03-22T03:12:45.266Z,13.80
2018-03-22T03:15:14.330Z,14.50
2018-03-22T03:17:44.145Z,12.83
2018-03-22T03:20:13.961Z,14.43
2018-03-22T03:22:43.246Z,14.90
2018-03-22T03:25:13.071Z,13.87
2018-03-22T03:27:42.913Z,14.13
2018-03-22T03:30:11.967Z,14.20
2018-03-22T03:32:41.774Z,14.57
2018-03-22T03:35:11.637Z,13.60
2018-03-22T03:37:40.682Z,13.00
2018-03-22T03:40:10.493Z,13.40
2018-03-22T03:42:40.314Z,12.20
2018-03-22T03:45:10.127Z,13.90
2018-03-22T03:47:39.977Z,12.33
2018-03-22T03:50:09.028Z,11.43
2018-03-22T03:52:38.057Z,12.57
2018-03-22T03:55:07.171Z,13.67
2018-03-22T03:57:36.221Z,13.80
2018-03-22T04:00:06.041Z,14.60
2018-03-22T04:02:35.118Z,13.60
2018-03-22T04:05:04.914Z,11.80
2018-03-22T04:07:33.966Z,13.70
2018-03-22T04:10:03.033Z,13.07
2018-03-22T04:12:32.080Z,13.90
2018-03-22T04:15:01.132Z,13.40
2018-03-22T04:17:30.221Z,13.30
2018-03-22T04:19:59.294Z,13.63
2018-03-22T04:22:29.105Z,15.87
2018-03-22T04:24:58.976Z,16.63
2018-03-22T04:27:28.017Z,16.10
2018-03-22T04:29:57.830Z,16.70
2018-03-22T04:32:27.699Z,17.87
2018-03-22T04:34:56.746Z,16.30
2018-03-22T04:37:25.803Z,14.17
2018-03-22T04:39:54.890Z,16.00
2018-03-22T04:42:23.938Z,15.00
2018-03-22T04:44:52.986Z,14.63
2018-03-22T04:47:22.063Z,14.50
2018-03-22T04:49:51.102Z,15.43
2018-03-22T04:52:20.913Z,15.30
2018-03-22T04:54:50.767Z,14.40
2018-03-22T04:57:19.823Z,15.10
2018-03-22T04:59:49.629Z,16.97
2018-03-22T05:02:19.479Z,14.90
2018-03-22T05:04:48.516Z,14.83
2018-03-22T05:07:17.581Z,16.80
2018-03-22T05:09:46.676Z,15.40
2018-03-22T05:12:15.729Z,14.87
2018-03-22T05:14:45.533Z,15.07
2018-03-22T05:17:15.380Z,15.67
2018-03-22T05:19:44.438Z,18.13
2018-03-22T05:22:14.254Z,17.70
2018-03-22T05:24:44.092Z,17.43
2018-03-22T05:27:13.353Z,18.60
2018-03-22T05:29:43.174Z,19.07
2018-03-22T05:32:13.010Z,18.17
2018-03-22T05:34:42.061Z,18.23
2018-03-22T05:37:11.109Z,38.43
2018-03-22T05:39:40.181Z,66.67
2018-03-22T05:42:09.253Z,144.00
2018-03-22T05:44:39.097Z,31.00
2018-03-22T05:47:08.183Z,21.20
2018-03-22T05:49:37.238Z,19.23
2018-03-22T05:52:06.275Z,20.53
2018-03-22T05:54:35.671Z,17.90
2018-03-22T05:57:05.482Z,20.00
2018-03-22T05:59:34.586Z,16.50
2018-03-22T06:02:03.665Z,16.67
2018-03-22T06:04:33.482Z,15.80
2018-03-22T06:07:03.315Z,15.70
2018-03-22T06:09:32.381Z,15.30
2018-03-22T06:12:02.195Z,14.27
2018-03-22T06:14:32.017Z,14.17
2018-03-22T06:17:01.828Z,14.17
2018-03-22T06:19:30.881Z,12.20
2018-03-22T06:21:59.953Z,13.07
2018-03-22T06:24:29.002Z,15.70
2018-03-22T06:26:58.818Z,13.93
2018-03-22T06:29:28.049Z,15.77
2018-03-22T06:31:57.106Z,44.47
2018-03-22T06:34:26.941Z,46.60
2018-03-22T06:36:56.006Z,19.40
2018-03-22T06:39:25.831Z,16.03
2018-03-22T06:41:55.664Z,14.97
2018-03-22T06:44:24.754Z,14.83
2018-03-22T06:46:53.827Z,14.87
2018-03-22T06:49:23.634Z,14.77
2018-03-22T06:51:53.474Z,14.83
2018-03-22T06:54:22.522Z,14.40
2018-03-22T06:56:51.614Z,14.63
2018-03-22T06:59:20.660Z,13.13
2018-03-22T07:01:49.706Z,13.57
2018-03-22T07:04:18.809Z,13.37
2018-03-22T07:06:48.626Z,15.30
2018-03-22T07:09:18.465Z,28.17
2018-03-22T07:11:47.514Z,23.90
2018-03-22T07:14:16.637Z,14.30
2018-03-22T07:16:46.469Z,13.43
2018-03-22T07:19:15.509Z,12.90
2018-03-22T07:21:44.571Z,13.13
2018-03-22T07:24:13.621Z,13.60
2018-03-22T07:26:42.785Z,12.40
2018-03-22T07:29:12.751Z,14.90
2018-03-22T07:31:43.346Z,14.17
2018-03-22T07:34:12.419Z,13.93
2018-03-22T07:36:41.467Z,13.33
2018-03-22T07:39:11.280Z,11.77
2018-03-22T07:41:41.134Z,11.63
2018-03-22T07:44:11.851Z,12.00
2018-03-22T07:46:40.908Z,11.50
2018-03-22T07:49:10.725Z,11.97
2018-03-22T07:51:40.544Z,13.90
2018-03-22T07:54:10.394Z,17.50
2018-03-22T07:56:39.438Z,15.67
2018-03-22T07:59:09.254Z,13.30
2018-03-22T08:01:39.094Z,15.10
2018-03-22T08:04:08.146Z,15.10
2018-03-22T08:06:37.197Z,15.40
2018-03-22T08:09:06.317Z,13.70
2018-03-22T08:11:35.359Z,13.27
2018-03-22T08:14:04.409Z,14.40
2018-03-22T08:16:33.499Z,12.53
2018-03-22T08:19:02.616Z,13.00
2018-03-22T08:21:32.441Z,12.37
2018-03-22T08:24:02.295Z,13.13
2018-03-22T08:26:31.344Z,11.60
2018-03-22T08:29:00.384Z,11.47
2018-03-22T08:31:29.551Z,11.80
2018-03-22T08:33:58.627Z,11.63
2018-03-22T08:36:27.667Z,16.20
2018-03-22T08:38:56.736Z,15.50
2018-03-22T08:41:25.861Z,10.70
2018-03-22T08:43:54.868Z,10.47
2018-03-22T08:46:23.969Z,12.07
2018-03-22T08:48:53.013Z,12.03
2018-03-22T08:51:22.811Z,10.33
2018-03-22T08:53:52.650Z,12.70
2018-03-22T08:56:21.745Z,11.70
2018-03-22T08:58:50.789Z,12.47
2018-03-22T09:01:19.871Z,13.07
2018-03-22T09:03:48.910Z,13.77
2018-03-22T09:06:18.710Z,14.30
2018-03-22T09:08:48.552Z,13.83
2018-03-22T09:11:17.589Z,13.40
2018-03-22T09:13:46.653Z,14.33
2018-03-22T09:16:15.715Z,12.83
2018-03-22T09:18:45.603Z,26.50
2018-03-22T09:21:15.387Z,13.93
2018-03-22T09:23:44.420Z,12.90
2018-03-22T09:26:15.067Z,14.60
2018-03-22T09:28:44.904Z,13.97
2018-03-22T09:31:13.940Z,13.00
2018-03-22T09:33:42.982Z,13.87
2018-03-22T09:36:12.838Z,13.80
2018-03-22T09:38:42.490Z,15.17
2018-03-22T09:41:12.297Z,13.30
2018-03-22T09:43:42.105Z,15.50
2018-03-22T09:46:11.913Z,14.90
2018-03-22T09:48:41.743Z,14.70
2018-03-22T09:51:11.554Z,14.33
2018-03-22T09:53:41.427Z,13.50
2018-03-22T09:56:10.425Z,15.20
2018-03-22T09:58:39.509Z,15.77
2018-03-22T10:01:08.588Z,14.33
2018-03-22T10:03:37.613Z,13.90
2018-03-22T10:06:06.662Z,13.50
2018-03-22T10:08:35.758Z,24.90
2018-03-22T10:11:04.798Z,16.60
2018-03-22T10:13:33.833Z,14.30
2018-03-22T10:16:02.896Z,14.80
2018-03-22T10:18:31.914Z,14.87
2018-03-22T10:21:00.948Z,15.10
2018-03-22T10:23:30.017Z,13.57
2018-03-22T10:25:59.140Z,13.80
2018-03-22T10:28:28.151Z,14.70
2018-03-22T10:30:57.222Z,13.20
2018-03-22T10:33:26.259Z,13.50
2018-03-22T10:35:56.054Z,14.33
2018-03-22T10:38:25.154Z,13.40
2018-03-22T10:40:54.178Z,13.13
2018-03-22T10:43:23.224Z,22.03
2018-03-22T10:45:52.270Z,17.00
2018-03-22T10:48:21.376Z,14.67
2018-03-22T10:50:50.353Z,13.60
2018-03-22T10:53:19.420Z,13.27
2018-03-22T10:55:48.544Z,13.67
2018-03-22T10:58:17.536Z,13.33
2018-03-22T11:00:52.130Z,14.33
2018-03-22T11:03:26.634Z,15.43
2018-03-22T11:05:55.669Z,15.37
2018-03-22T11:08:25.506Z,15.80
2018-03-22T11:10:54.563Z,15.47
2018-03-22T11:13:24.369Z,16.57
2018-03-22T11:15:53.442Z,14.20
2018-03-22T11:18:22.473Z,13.63
2018-03-22T11:20:51.538Z,15.73
2018-03-22T11:23:20.597Z,14.87
2018-03-22T11:25:49.652Z,15.20
2018-03-22T11:28:19.505Z,13.70
2018-03-22T11:30:48.581Z,14.60
2018-03-22T11:33:17.663Z,21.00
2018-03-22T11:35:46.715Z,14.70
2018-03-22T11:38:15.798Z,13.80
2018-03-22T11:40:44.912Z,14.13
2018-03-22T11:43:13.941Z,14.90
2018-03-22T11:45:43.027Z,15.00
2018-03-22T11:48:12.839Z,14.53
2018-03-22T11:50:42.677Z,14.70
2018-03-22T11:53:11.717Z,14.20
2018-03-22T11:55:40.781Z,14.60
2018-03-22T11:58:09.861Z,15.73
2018-03-22T12:00:38.910Z,15.30
2018-03-22T12:03:07.955Z,15.40
2018-03-22T12:05:37.029Z,15.20
2018-03-22T12:08:06.122Z,14.83
2018-03-22T12:10:35.969Z,13.80
2018-03-22T12:13:05.006Z,13.30
2018-03-22T12:15:34.848Z,13.43
2018-03-22T12:18:03.920Z,13.40
2018-03-22T12:20:33.746Z,18.00
2018-03-22T12:23:02.806Z,14.27
2018-03-22T12:25:31.888Z,14.30
2018-03-22T12:28:01.960Z,15.50
2018-03-22T12:30:31.029Z,13.80
2018-03-22T12:33:00.094Z,14.40
2018-03-22T12:35:29.147Z,13.97
2018-03-22T12:37:58.218Z,12.97
2018-03-22T12:40:28.025Z,14.10
2018-03-22T12:42:57.203Z,15.10
2018-03-22T12:45:26.234Z,12.87
2018-03-22T12:47:55.310Z,13.07
2018-03-22T12:50:25.128Z,13.70
2018-03-22T12:52:54.978Z,12.43
2018-03-22T12:55:24.044Z,12.97
2018-03-22T12:57:53.909Z,15.33
2018-03-22T13:00:23.759Z,14.17
2018-03-22T13:02:53.599Z,14.40
2018-03-22T13:05:22.647Z,13.63
2018-03-22T13:07:51.713Z,14.17
2018-03-22T13:10:20.802Z,15.20
2018-03-22T13:12:49.866Z,12.57
2018-03-22T13:15:18.909Z,13.77
2018-03-22T13:17:47.995Z,14.00
2018-03-22T13:20:17.083Z,14.77
2018-03-22T13:22:46.158Z,14.60
2018-03-22T13:25:15.238Z,14.87
2018-03-22T13:27:44.268Z,13.97
2018-03-22T13:30:13.324Z,14.50
2018-03-22T13:32:43.167Z,14.07
2018-03-22T13:35:12.240Z,14.40
2018-03-22T13:37:41.735Z,12.50
2018-03-22T13:40:11.255Z,13.83
2018-03-22T13:42:40.301Z,13.57
2018-03-22T13:45:09.373Z,14.07
2018-03-22T13:47:38.426Z,14.70
2018-03-22T13:50:08.247Z,13.13
2018-03-22T13:52:37.295Z,12.57
2018-03-22T13:55:06.364Z,13.27
2018-03-22T13:57:35.446Z,13.33
2018-03-22T14:00:04.522Z,12.77
2018-03-22T14:02:33.573Z,13.10
2018-03-22T14:05:02.654Z,13.23
2018-03-22T14:07:31.697Z,12.20
2018-03-22T14:10:00.762Z,12.00
2018-03-22T14:12:29.809Z,12.17
2018-03-22T14:14:58.879Z,12.27
2018-03-22T14:17:28.721Z,13.33
2018-03-22T14:19:57.790Z,12.57
2018-03-22T14:22:26.840Z,12.40
2018-03-22T14:24:55.920Z,12.03
2018-03-22T14:27:24.999Z,12.40
2018-03-22T14:29:54.102Z,12.30
2018-03-22T14:32:23.125Z,12.13
2018-03-22T14:34:52.202Z,12.20
2018-03-22T14:37:21.264Z,12.00
2018-03-22T14:39:50.325Z,11.93
2018-03-22T14:42:20.166Z,11.57
2018-03-22T14:44:49.230Z,11.13
2018-03-22T14:47:19.041Z,12.10
2018-03-22T14:49:48.888Z,12.50
2018-03-22T14:52:17.944Z,13.37
2018-03-22T14:54:47.024Z,10.70
2018-03-22T14:57:16.113Z,12.43
2018-03-22T14:59:45.734Z,11.13
2018-03-22T15:02:14.806Z,11.10
2018-03-22T15:04:43.851Z,11.33
2018-03-22T15:07:12.977Z,11.60
2018-03-22T15:09:42.023Z,12.30
2018-03-22T15:12:11.089Z,10.60
2018-03-22T15:14:40.166Z,11.70
2018-03-22T15:17:09.210Z,11.53
2018-03-22T15:19:39.032Z,11.70
2018-03-22T15:22:08.860Z,11.00
2018-03-22T15:24:37.932Z,12.10
2018-03-22T15:27:07.770Z,11.70
2018-03-22T15:29:37.623Z,10.40
2018-03-22T15:32:07.159Z,12.50
2018-03-22T15:34:36.978Z,12.30
2018-03-22T15:37:06.811Z,10.83
2018-03-22T15:39:35.957Z,11.40
2018-03-22T15:42:05.006Z,11.60
2018-03-22T15:44:34.853Z,10.63
2018-03-22T15:47:03.905Z,10.90
2018-03-22T15:49:32.946Z,11.20
2018-03-22T15:52:02.063Z,12.77
2018-03-22T15:54:32.613Z,11.97
2018-03-22T15:57:02.424Z,12.37
2018-03-22T15:59:32.242Z,13.20
2018-03-22T16:02:01.298Z,11.83
2018-03-22T16:04:30.370Z,12.63
2018-03-22T16:06:59.410Z,11.63
2018-03-22T16:09:29.274Z,12.00
2018-03-22T16:11:58.335Z,11.47
2018-03-22T16:14:28.142Z,12.80
2018-03-22T16:16:57.234Z,11.50
2018-03-22T16:19:26.455Z,11.70
2018-03-22T16:21:55.466Z,11.83
2018-03-22T16:24:24.553Z,12.30
2018-03-22T16:26:53.596Z,12.07
2018-03-22T16:29:22.671Z,43.30
2018-03-22T16:31:51.834Z,38.73
2018-03-22T16:34:20.881Z,13.10
2018-03-22T16:36:49.970Z,13.90
2018-03-22T16:39:18.999Z,12.40
2018-03-22T16:41:48.924Z,12.23
2018-03-22T16:44:17.958Z,11.07
2018-03-22T16:46:47.024Z,12.70
2018-03-22T16:49:16.060Z,12.47
2018-03-22T16:51:45.141Z,12.17
2018-03-22T16:54:14.185Z,12.20
2018-03-22T16:56:43.237Z,12.70
2018-03-22T16:59:12.313Z,16.83
2018-03-22T17:01:41.439Z,20.13
2018-03-22T17:04:10.502Z,27.83
2018-03-22T17:06:39.583Z,30.97
2018-03-22T17:09:08.715Z,34.60
2018-03-22T17:11:37.730Z,36.80
2018-03-22T17:14:07.610Z,36.73
2018-03-22T17:16:36.703Z,37.47
2018-03-22T17:19:05.744Z,35.00
2018-03-22T17:21:35.579Z,36.63
2018-03-22T17:24:04.695Z,36.57
2018-03-22T17:26:33.787Z,35.60
2018-03-22T17:29:02.854Z,35.20
2018-03-22T17:31:31.896Z,35.00
2018-03-22T17:34:00.919Z,34.43
2018-03-22T17:36:30.879Z,32.37
2018-03-22T17:38:59.918Z,35.70
2018-03-22T17:41:29.011Z,31.00
2018-03-22T17:43:58.184Z,32.67
2018-03-22T17:46:27.337Z,32.57
2018-03-22T17:48:57.251Z,30.13
2018-03-22T17:51:27.322Z,28.80
2018-03-22T17:53:56.514Z,28.43
2018-03-22T17:56:25.809Z,27.20
2018-03-22T17:58:55.044Z,28.80
2018-03-22T18:01:24.354Z,27.97
2018-03-22T18:03:53.566Z,28.47
2018-03-22T18:06:23.665Z,27.50
2018-03-22T18:08:52.881Z,27.43
2018-03-22T18:11:22.845Z,26.20
2018-03-22T18:13:52.147Z,27.00
2018-03-22T18:16:22.208Z,27.27
2018-03-22T18:18:51.439Z,21.33
2018-03-22T18:21:20.758Z,19.60
2018-03-22T18:23:50.017Z,20.37
2018-03-22T18:26:20.057Z,22.50
2018-03-22T18:28:49.279Z,23.20
2018-03-22T18:31:18.595Z,23.27
2018-03-22T18:33:47.990Z,20.33
2018-03-22T18:36:17.278Z,22.10
2018-03-22T18:38:46.486Z,25.83
2018-03-22T18:41:15.728Z,24.60
2018-03-22T18:43:45.808Z,22.93
2018-03-22T18:46:15.186Z,27.37
2018-03-22T18:48:44.210Z,27.03
2018-03-22T18:51:13.435Z,28.63
2018-03-22T18:53:43.546Z,30.10
2018-03-22T18:56:12.842Z,33.10
2018-03-22T18:58:42.160Z,34.70
2018-03-22T19:01:12.367Z,36.90
2018-03-22T19:03:41.676Z,37.47
2018-03-22T19:06:11.730Z,40.47
2018-03-22T19:08:41.026Z,38.60
2018-03-22T19:11:10.302Z,38.17
2018-03-22T19:13:40.396Z,40.10
2018-03-22T19:16:09.673Z,38.10
2018-03-22T19:18:38.978Z,38.00
2018-03-22T19:21:08.393Z,37.27
2018-03-22T19:23:37.706Z,38.00
2018-03-22T19:26:06.977Z,39.00
2018-03-22T19:28:36.407Z,43.40
2018-03-22T19:31:05.691Z,62.80
2018-03-22T19:33:34.950Z,44.40
2018-03-22T19:36:04.270Z,38.40
2018-03-22T19:38:33.561Z,35.07
2018-03-22T19:41:02.892Z,35.17
2018-03-22T19:43:32.240Z,36.40
2018-03-22T19:46:01.513Z,34.93
2018-03-22T19:48:31.648Z,35.50
2018-03-22T19:51:00.975Z,33.67
2018-03-22T19:53:30.240Z,62.70
2018-03-22T19:55:59.608Z,42.80
2018-03-22T19:58:28.930Z,33.80
2018-03-22T20:00:58.992Z,32.67
2018-03-22T20:03:28.614Z,33.30
2018-03-22T20:05:57.909Z,30.80
2018-03-22T20:08:27.249Z,30.33
2018-03-22T20:10:56.584Z,78.07
2018-03-22T20:13:25.884Z,49.40
2018-03-22T20:15:55.120Z,34.87
2018-03-22T20:18:25.211Z,33.50
2018-03-22T20:20:54.464Z,33.77
2018-03-22T20:23:23.784Z,33.40
2018-03-22T20:25:53.149Z,33.40
2018-03-22T20:28:22.715Z,32.60
2018-03-22T20:30:52.031Z,33.67
2018-03-22T20:33:21.415Z,30.33
2018-03-22T20:35:50.687Z,29.67
2018-03-22T20:38:20.861Z,32.40
2018-03-22T20:40:50.023Z,29.90
2018-03-22T20:43:19.286Z,32.07
2018-03-22T20:45:48.547Z,29.73
2018-03-22T20:48:17.726Z,33.83
2018-03-22T20:50:47.035Z,29.17
2018-03-22T20:53:16.281Z,24.83
2018-03-22T20:55:45.424Z,22.17
2018-03-22T20:58:15.429Z,24.10
2018-03-22T21:00:44.656Z,24.90
2018-03-22T21:03:13.719Z,24.13
2018-03-22T21:05:42.742Z,24.10
2018-03-22T21:08:11.866Z,27.13
2018-03-22T21:10:40.909Z,22.80
2018-03-22T21:13:09.933Z,23.60
2018-03-22T21:15:39.054Z,23.00
2018-03-22T21:18:08.674Z,23.60
2018-03-22T21:20:38.474Z,25.30
2018-03-22T21:23:08.323Z,23.30
2018-03-22T21:25:37.345Z,23.33
2018-03-22T21:28:06.379Z,22.63
2018-03-22T21:30:36.206Z,24.17
2018-03-22T21:33:05.246Z,24.47
2018-03-22T21:35:34.293Z,23.50
2018-03-22T21:38:03.481Z,24.80
2018-03-22T21:40:32.503Z,24.20
2018-03-22T21:43:01.557Z,22.90
2018-03-22T21:45:31.394Z,23.83
2018-03-22T21:48:00.441Z,24.07
2018-03-22T21:50:47.482Z,23.17
2018-03-22T21:53:17.518Z,23.70
2018-03-22T21:55:46.562Z,23.40
2018-03-22T21:58:15.621Z,21.90
2018-03-22T22:00:45.452Z,22.70
2018-03-22T22:03:15.194Z,23.00
2018-03-22T22:05:44.237Z,23.70
2018-03-22T22:08:13.293Z,23.47
2018-03-22T22:10:43.245Z,22.80
2018-03-22T22:13:12.288Z,23.93
2018-03-22T22:15:41.404Z,22.80
2018-03-22T22:18:11.264Z,23.60
2018-03-22T22:20:40.314Z,22.93
2018-03-22T22:23:10.163Z,21.00
2018-03-22T22:25:39.248Z,20.30
2018-03-22T22:28:08.302Z,22.50
2018-03-22T22:30:37.355Z,24.33
2018-03-22T22:33:06.407Z,24.00
2018-03-22T22:35:36.231Z,22.07
2018-03-22T22:38:05.273Z,22.50
2018-03-22T22:40:34.362Z,22.10
2018-03-22T22:43:03.415Z,22.57
2018-03-22T22:45:32.470Z,25.20
2018-03-22T22:48:01.615Z,25.50
2018-03-22T22:50:30.615Z,25.83
2018-03-22T22:52:59.670Z,23.50
2018-03-22T22:55:29.723Z,24.57
2018-03-22T22:57:58.769Z,26.50
2018-03-22T23:00:27.811Z,28.93
2018-03-22T23:02:56.896Z,30.10
2018-03-22T23:05:25.934Z,29.53
2018-03-22T23:07:54.999Z,28.40
2018-03-22T23:10:24.093Z,26.07
2018-03-22T23:12:53.169Z,27.80
2018-03-22T23:15:22.227Z,28.47
2018-03-22T23:17:51.334Z,27.77
2018-03-22T23:20:20.378Z,27.27
2018-03-22T23:22:49.429Z,26.97
2018-03-22T23:25:19.265Z,27.37
2018-03-22T23:27:48.347Z,24.47
2018-03-22T23:30:18.146Z,27.27
2018-03-22T23:32:47.998Z,24.80
2018-03-22T23:35:17.051Z,21.10
2018-03-22T23:37:46.861Z,20.30
2018-03-22T23:40:16.705Z,20.80
2018-03-22T23:42:45.754Z,21.13
2018-03-22T23:45:14.793Z,20.37
2018-03-22T23:47:43.889Z,19.13
2018-03-22T23:50:12.946Z,19.03
2018-03-22T23:52:41.986Z,18.30
2018-03-22T23:55:11.061Z,19.27
2018-03-22T23:57:40.137Z,18.40
